createdAt,value
2017-12-06T00:00:11.531Z,80.97
2017-12-06T00:02:37.741Z,80.98
2017-12-06T00:05:04.061Z,80.91
2017-12-06T00:07:30.284Z,80.90
2017-12-06T00:09:56.500Z,80.60
2017-12-06T00:12:22.757Z,80.22
2017-12-06T00:14:48.990Z,80.62
2017-12-06T00:17:15.181Z,80.20
2017-12-06T00:19:41.442Z,80.17
2017-12-06T00:22:07.853Z,80.73
2017-12-06T00:24:34.276Z,80.53
2017-12-06T00:27:00.537Z,80.02
2017-12-06T00:29:27.159Z,79.63
2017-12-06T00:31:53.393Z,79.34
2017-12-06T00:34:19.574Z,79.64
2017-12-06T00:36:45.784Z,80.09
2017-12-06T00:39:12.079Z,80.41
2017-12-06T00:41:38.319Z,80.27
2017-12-06T00:44:04.732Z,79.95
2017-12-06T00:46:30.926Z,79.20
2017-12-06T00:48:57.211Z,78.35
2017-12-06T00:51:23.629Z,78.04
2017-12-06T00:53:50.024Z,77.60
2017-12-06T00:56:16.285Z,78.41
2017-12-06T00:58:42.517Z,80.64
2017-12-06T01:01:08.692Z,81.26
2017-12-06T01:03:34.873Z,80.88
2017-12-06T01:06:01.425Z,80.60
2017-12-06T01:08:27.657Z,80.75
2017-12-06T01:10:53.869Z,80.81
2017-12-06T01:13:20.308Z,80.74
2017-12-06T01:15:46.577Z,81.21
2017-12-06T01:18:12.936Z,82.23
2017-12-06T01:20:39.202Z,83.05
2017-12-06T01:23:05.397Z,83.47
2017-12-06T01:25:31.652Z,83.67
2017-12-06T01:27:58.288Z,83.53
2017-12-06T01:30:24.534Z,83.65
2017-12-06T01:32:50.738Z,82.76
2017-12-06T01:35:16.970Z,83.02
2017-12-06T01:37:43.154Z,82.82
2017-12-06T01:40:09.345Z,83.21
2017-12-06T01:42:35.832Z,82.08
2017-12-06T01:45:02.107Z,82.20
2017-12-06T01:47:28.291Z,82.67
2017-12-06T01:49:54.512Z,82.75
2017-12-06T01:52:20.695Z,82.69
2017-12-06T01:54:47.022Z,82.52
2017-12-06T01:57:13.440Z,82.49
2017-12-06T01:59:39.658Z,82.43
2017-12-06T02:02:05.901Z,82.70
2017-12-06T02:04:32.129Z,82.55
2017-12-06T02:06:58.351Z,82.23
2017-12-06T02:09:24.741Z,82.32
2017-12-06T02:11:51.022Z,81.70
2017-12-06T02:14:17.250Z,81.35
2017-12-06T02:16:43.478Z,80.34
2017-12-06T02:19:09.695Z,79.99
2017-12-06T02:21:35.934Z,80.29
2017-12-06T02:24:02.166Z,80.54
2017-12-06T02:26:28.598Z,80.59
2017-12-06T02:28:54.779Z,80.17
2017-12-06T02:31:21.222Z,80.35
2017-12-06T02:33:47.449Z,79.89
2017-12-06T02:36:13.627Z,79.87
2017-12-06T02:38:39.942Z,79.68
2017-12-06T02:41:06.384Z,80.01
2017-12-06T02:43:32.824Z,81.48
2017-12-06T02:45:59.057Z,81.83
2017-12-06T02:48:25.288Z,80.03
2017-12-06T02:50:51.627Z,78.56
2017-12-06T02:53:17.942Z,79.08
2017-12-06T02:55:44.366Z,79.57
2017-12-06T02:58:10.549Z,80.63
2017-12-06T03:00:36.739Z,80.72
2017-12-06T03:03:03.062Z,81.78
2017-12-06T03:05:29.253Z,79.34
2017-12-06T03:07:55.724Z,78.95
2017-12-06T03:10:22.140Z,80.12
2017-12-06T03:12:48.389Z,80.34
2017-12-06T03:15:14.661Z,81.91
2017-12-06T03:17:40.884Z,82.71
2017-12-06T03:20:07.266Z,82.92
2017-12-06T03:22:33.492Z,81.25
2017-12-06T03:24:59.713Z,80.77
2017-12-06T03:27:25.899Z,80.45
2017-12-06T03:29:52.088Z,80.64
2017-12-06T03:32:18.541Z,79.35
2017-12-06T03:34:44.722Z,79.21
2017-12-06T03:37:11.076Z,79.55
2017-12-06T03:39:37.294Z,80.51
2017-12-06T03:42:03.531Z,80.83
2017-12-06T03:44:29.980Z,80.31
2017-12-06T03:46:56.189Z,80.39
2017-12-06T03:49:22.438Z,80.80
2017-12-06T03:51:48.659Z,81.20
2017-12-06T03:54:14.894Z,82.06
2017-12-06T03:56:41.115Z,82.81
2017-12-06T03:59:07.535Z,83.17
2017-12-06T04:01:33.785Z,83.38
2017-12-06T04:04:00.009Z,82.42
2017-12-06T04:06:26.183Z,82.22
2017-12-06T04:08:52.464Z,84.52
2017-12-06T04:11:18.693Z,83.60
2017-12-06T04:13:44.945Z,84.35
2017-12-06T04:16:11.355Z,83.66
2017-12-06T04:18:37.751Z,83.65
2017-12-06T04:21:03.931Z,83.29
2017-12-06T04:23:30.283Z,83.43
2017-12-06T04:25:56.461Z,82.86
2017-12-06T04:28:22.653Z,82.88
2017-12-06T04:30:48.886Z,83.24
2017-12-06T04:33:15.137Z,83.63
2017-12-06T04:35:41.387Z,82.53
2017-12-06T04:38:07.602Z,82.74
2017-12-06T04:40:33.831Z,83.22
2017-12-06T04:43:00.264Z,82.85
2017-12-06T04:45:26.479Z,83.24
2017-12-06T04:47:52.737Z,83.09
2017-12-06T04:50:18.919Z,82.64
2017-12-06T04:52:45.195Z,83.60
2017-12-06T04:55:11.421Z,82.58
2017-12-06T04:57:37.836Z,81.97
2017-12-06T05:00:04.335Z,83.35
2017-12-06T05:02:30.711Z,82.95
2017-12-06T05:04:56.984Z,82.75
2017-12-06T05:07:23.384Z,82.09
2017-12-06T05:09:49.651Z,83.22
2017-12-06T05:12:15.836Z,83.56
2017-12-06T05:14:42.264Z,83.63
2017-12-06T05:17:08.433Z,83.77
2017-12-06T05:19:34.679Z,83.71
2017-12-06T05:22:00.886Z,83.22
2017-12-06T05:24:27.184Z,83.77
2017-12-06T05:26:53.614Z,83.28
2017-12-06T05:29:19.831Z,83.27
2017-12-06T05:31:46.007Z,82.77
2017-12-06T05:34:12.201Z,82.38
2017-12-06T05:36:38.419Z,82.58
2017-12-06T05:39:04.746Z,82.77
2017-12-06T05:41:30.929Z,83.10
2017-12-06T05:43:57.149Z,82.91
2017-12-06T05:46:23.336Z,82.60
2017-12-06T05:48:49.671Z,82.63
2017-12-06T05:51:15.898Z,82.17
2017-12-06T05:53:42.084Z,81.28
2017-12-06T05:56:08.265Z,81.82
2017-12-06T05:58:34.476Z,80.13
2017-12-06T06:01:00.875Z,79.67
2017-12-06T06:03:27.462Z,79.71
2017-12-06T06:05:53.674Z,80.69
2017-12-06T06:08:19.858Z,80.21
2017-12-06T06:10:46.050Z,80.47
2017-12-06T06:13:12.268Z,80.49
2017-12-06T06:15:38.594Z,81.70
2017-12-06T06:18:04.818Z,82.56
2017-12-06T06:20:31.041Z,82.41
2017-12-06T06:22:57.225Z,79.46
2017-12-06T06:25:23.506Z,78.57
2017-12-06T06:27:49.727Z,82.29
2017-12-06T06:30:15.961Z,81.89
2017-12-06T06:32:42.204Z,85.08
2017-12-06T06:35:08.426Z,78.98
2017-12-06T06:37:34.616Z,83.39
2017-12-06T06:40:00.881Z,80.36
2017-12-06T06:42:27.326Z,81.70
2017-12-06T06:44:53.535Z,76.95
2017-12-06T06:47:19.718Z,78.07
2017-12-06T06:49:45.945Z,80.46
2017-12-06T06:52:12.225Z,77.08
2017-12-06T06:54:38.426Z,75.95
2017-12-06T06:57:04.879Z,75.61
2017-12-06T06:59:31.066Z,77.28
2017-12-06T07:01:57.355Z,75.60
2017-12-06T07:04:23.773Z,73.54
2017-12-06T07:06:50.019Z,76.12
2017-12-06T07:09:16.251Z,72.49
2017-12-06T07:11:42.667Z,74.87
2017-12-06T07:14:08.861Z,72.83
2017-12-06T07:16:35.126Z,76.64
2017-12-06T07:19:01.779Z,73.03
2017-12-06T07:21:27.984Z,70.28
2017-12-06T07:23:54.180Z,71.16
2017-12-06T07:26:20.449Z,69.68
2017-12-06T07:28:46.682Z,69.04
2017-12-06T07:31:12.871Z,69.60
2017-12-06T07:33:39.077Z,71.35
2017-12-06T07:36:05.447Z,69.25
2017-12-06T07:38:31.814Z,72.24
2017-12-06T07:40:58.229Z,70.22
2017-12-06T07:43:24.423Z,70.01
2017-12-06T07:45:50.705Z,68.43
2017-12-06T07:48:17.126Z,69.48
2017-12-06T07:50:43.318Z,69.97
2017-12-06T07:53:09.590Z,66.71
2017-12-06T07:55:35.808Z,70.81
2017-12-06T07:58:01.997Z,69.79
2017-12-06T08:00:28.198Z,68.00
2017-12-06T08:02:54.714Z,68.93
2017-12-06T08:05:20.922Z,68.28
2017-12-06T08:07:47.169Z,66.31
2017-12-06T08:10:13.596Z,67.92
2017-12-06T08:12:39.834Z,67.56
2017-12-06T08:15:06.060Z,68.22
2017-12-06T08:17:32.495Z,65.03
2017-12-06T08:19:58.726Z,65.92
2017-12-06T08:22:24.954Z,64.98
2017-12-06T08:24:51.387Z,65.28
2017-12-06T08:27:17.802Z,66.38
2017-12-06T08:29:44.029Z,66.14
2017-12-06T08:32:10.270Z,64.88
2017-12-06T08:34:36.453Z,65.39
2017-12-06T08:37:02.940Z,65.69
2017-12-06T08:39:29.169Z,65.64
2017-12-06T08:41:55.654Z,65.26
2017-12-06T08:44:21.852Z,65.76
2017-12-06T08:46:48.264Z,64.91
2017-12-06T08:49:14.754Z,65.52
2017-12-06T08:51:40.937Z,65.46
2017-12-06T08:54:07.293Z,65.43
2017-12-06T08:56:33.587Z,63.98
2017-12-06T08:58:59.877Z,63.43
2017-12-06T09:01:26.123Z,64.47
2017-12-06T09:03:52.465Z,62.90
2017-12-06T09:06:18.688Z,64.64
2017-12-06T09:08:45.338Z,63.56
2017-12-06T09:11:11.525Z,62.06
2017-12-06T09:13:37.716Z,61.30
2017-12-06T09:16:04.212Z,58.33
2017-12-06T09:18:30.401Z,59.31
2017-12-06T09:20:56.598Z,57.79
2017-12-06T09:23:22.817Z,58.46
2017-12-06T09:25:49.143Z,59.17
2017-12-06T09:28:15.379Z,58.98
2017-12-06T09:30:41.594Z,57.58
2017-12-06T09:33:07.854Z,54.98
2017-12-06T09:35:34.049Z,54.22
2017-12-06T09:38:00.264Z,51.32
2017-12-06T09:40:26.682Z,48.77
2017-12-06T09:42:52.949Z,46.64
2017-12-06T09:45:19.384Z,48.40
2017-12-06T09:47:45.617Z,48.73
2017-12-06T09:50:11.840Z,47.53
2017-12-06T09:52:38.278Z,47.60
2017-12-06T09:55:04.508Z,47.95
2017-12-06T09:57:30.680Z,49.91
2017-12-06T09:59:57.342Z,49.44
2017-12-06T10:02:23.533Z,48.39
2017-12-06T10:04:49.760Z,46.08
2017-12-06T10:07:16.055Z,43.54
2017-12-06T10:09:42.244Z,42.74
2017-12-06T10:12:08.440Z,42.42
2017-12-06T10:14:34.657Z,41.62
2017-12-06T10:17:00.958Z,41.72
2017-12-06T10:19:27.141Z,41.23
2017-12-06T10:21:53.594Z,43.64
2017-12-06T10:24:19.792Z,42.89
2017-12-06T10:26:46.253Z,42.66
2017-12-06T10:29:12.479Z,44.38
2017-12-06T10:31:38.912Z,46.24
2017-12-06T10:34:05.193Z,49.23
2017-12-06T10:36:31.626Z,48.35
2017-12-06T10:38:57.852Z,49.31
2017-12-06T10:41:24.035Z,50.11
2017-12-06T10:43:50.225Z,50.75
2017-12-06T10:46:16.606Z,51.87
2017-12-06T10:48:42.972Z,50.90
2017-12-06T10:51:09.193Z,51.07
2017-12-06T10:53:35.617Z,52.30
2017-12-06T10:56:01.800Z,53.28
2017-12-06T10:58:27.990Z,53.31
2017-12-06T11:00:54.218Z,54.18
2017-12-06T11:03:20.405Z,53.27
2017-12-06T11:05:46.586Z,52.18
2017-12-06T11:08:12.995Z,51.14
2017-12-06T11:10:39.233Z,52.06
2017-12-06T11:13:05.557Z,51.79
2017-12-06T11:15:31.775Z,54.16
2017-12-06T11:17:58.104Z,53.97
2017-12-06T11:20:24.262Z,52.78
2017-12-06T11:22:50.477Z,51.10
2017-12-06T11:25:16.792Z,49.08
2017-12-06T11:27:42.973Z,50.49
2017-12-06T11:30:09.196Z,51.21
2017-12-06T11:32:35.701Z,53.01
2017-12-06T11:35:02.139Z,53.15
2017-12-06T11:37:28.646Z,49.84
2017-12-06T11:39:55.002Z,53.25
2017-12-06T11:42:21.182Z,52.76
2017-12-06T11:44:47.445Z,53.32
2017-12-06T11:47:13.628Z,53.76
2017-12-06T11:49:39.915Z,55.55
2017-12-06T11:52:06.170Z,57.76
2017-12-06T11:54:32.365Z,57.07
2017-12-06T11:56:58.537Z,57.45
2017-12-06T11:59:24.770Z,56.29
2017-12-06T12:01:51.056Z,56.39
2017-12-06T12:04:17.234Z,56.23
2017-12-06T12:06:43.486Z,54.76
2017-12-06T12:09:09.747Z,55.90
2017-12-06T12:11:35.936Z,56.90
2017-12-06T12:14:02.609Z,57.94
2017-12-06T12:16:28.841Z,58.62
2017-12-06T12:18:55.062Z,59.64
2017-12-06T12:21:21.500Z,58.60
2017-12-06T12:23:47.947Z,57.99
2017-12-06T12:26:14.156Z,58.63
2017-12-06T12:28:40.377Z,58.41
2017-12-06T12:31:06.603Z,59.16
2017-12-06T12:33:32.856Z,58.93
2017-12-06T12:35:59.068Z,60.05
2017-12-06T12:38:25.500Z,58.61
2017-12-06T12:40:51.730Z,58.51
2017-12-06T12:43:17.910Z,58.73
2017-12-06T12:45:44.211Z,59.93
2017-12-06T12:48:10.604Z,59.30
2017-12-06T12:50:37.245Z,58.18
2017-12-06T12:53:03.907Z,59.72
2017-12-06T12:55:30.179Z,58.76
2017-12-06T12:57:56.621Z,59.08
2017-12-06T13:00:22.990Z,59.63
2017-12-06T13:02:49.231Z,59.76
2017-12-06T13:05:15.446Z,59.31
2017-12-06T13:07:41.881Z,60.26
2017-12-06T13:10:08.104Z,59.37
2017-12-06T13:12:34.308Z,59.21
2017-12-06T13:15:00.535Z,59.01
2017-12-06T13:17:26.741Z,60.13
2017-12-06T13:19:52.927Z,60.55
2017-12-06T13:22:19.254Z,59.46
2017-12-06T13:24:45.658Z,59.22
2017-12-06T13:27:11.925Z,59.55
2017-12-06T13:29:38.265Z,59.73
2017-12-06T13:32:04.578Z,60.01
2017-12-06T13:34:30.761Z,60.11
2017-12-06T13:36:57.217Z,59.90
2017-12-06T13:39:23.478Z,60.12
2017-12-06T13:41:49.704Z,60.24
2017-12-06T13:44:15.925Z,59.90
2017-12-06T13:46:42.153Z,60.32
2017-12-06T13:49:08.329Z,60.85
2017-12-06T13:51:34.609Z,61.17
2017-12-06T13:54:00.856Z,62.04
2017-12-06T13:56:27.105Z,60.84
2017-12-06T13:58:53.378Z,61.96
2017-12-06T14:01:19.727Z,61.61
2017-12-06T14:03:46.120Z,61.55
2017-12-06T14:06:12.578Z,61.71
2017-12-06T14:08:39.044Z,62.16
2017-12-06T14:11:05.426Z,61.62
2017-12-06T14:13:31.641Z,60.82
2017-12-06T14:15:57.830Z,61.36
2017-12-06T14:18:24.156Z,61.74
2017-12-06T14:20:50.544Z,61.70
2017-12-06T14:23:16.730Z,62.14
2017-12-06T14:25:42.899Z,62.35
2017-12-06T14:28:09.277Z,62.13
2017-12-06T14:30:35.475Z,62.15
2017-12-06T14:33:01.667Z,62.06
2017-12-06T14:35:27.965Z,62.65
2017-12-06T14:37:54.166Z,62.07
2017-12-06T14:40:20.424Z,61.65
2017-12-06T14:42:46.948Z,62.15
2017-12-06T14:45:13.280Z,62.86
2017-12-06T14:47:39.474Z,63.47
2017-12-06T14:50:05.748Z,61.86
2017-12-06T14:52:31.927Z,61.04
2017-12-06T14:54:58.200Z,61.24
2017-12-06T14:57:24.436Z,61.74
2017-12-06T14:59:50.862Z,62.42
2017-12-06T15:02:17.051Z,61.05
2017-12-06T15:04:43.323Z,62.35
2017-12-06T15:07:09.541Z,62.50
2017-12-06T15:09:35.715Z,62.07
2017-12-06T15:12:02.009Z,61.50
2017-12-06T15:14:28.229Z,61.90
2017-12-06T15:16:54.407Z,62.72
2017-12-06T15:19:20.900Z,63.11
2017-12-06T15:21:47.131Z,63.52
2017-12-06T15:24:13.359Z,62.30
2017-12-06T15:26:39.784Z,63.25
2017-12-06T15:29:06.224Z,63.21
2017-12-06T15:31:32.436Z,61.92
2017-12-06T15:33:58.661Z,63.15
2017-12-06T15:36:24.837Z,61.69
2017-12-06T15:38:51.080Z,61.63
2017-12-06T15:41:17.364Z,62.13
2017-12-06T15:43:43.600Z,63.21
2017-12-06T15:46:09.806Z,63.25
2017-12-06T15:48:36.017Z,63.72
2017-12-06T15:51:02.264Z,63.40
2017-12-06T15:53:28.511Z,63.19
2017-12-06T15:55:54.944Z,64.18
2017-12-06T15:58:21.166Z,63.66
2017-12-06T16:00:47.382Z,63.35
2017-12-06T16:03:13.598Z,63.60
2017-12-06T16:05:39.792Z,63.15
2017-12-06T16:08:06.067Z,64.23
2017-12-06T16:10:32.723Z,66.97
2017-12-06T16:12:58.952Z,63.36
2017-12-06T16:15:25.174Z,64.54
2017-12-06T16:17:51.617Z,63.68
2017-12-06T16:20:17.829Z,63.94
2017-12-06T16:22:44.018Z,65.22
2017-12-06T16:25:10.228Z,64.84
2017-12-06T16:27:36.525Z,69.32
2017-12-06T16:30:02.881Z,64.17
2017-12-06T16:32:29.193Z,65.78
2017-12-06T16:34:55.374Z,63.54
2017-12-06T16:37:21.572Z,64.43
2017-12-06T16:39:47.878Z,66.67
2017-12-06T16:42:14.102Z,63.56
2017-12-06T16:44:40.337Z,64.97
2017-12-06T16:47:06.566Z,63.70
2017-12-06T16:49:32.967Z,64.39
2017-12-06T16:51:59.220Z,63.90
2017-12-06T16:54:25.629Z,64.02
2017-12-06T16:56:51.890Z,65.37
2017-12-06T16:59:18.119Z,66.72
2017-12-06T17:01:44.352Z,63.12
2017-12-06T17:04:10.535Z,63.54
2017-12-06T17:06:36.906Z,61.99
2017-12-06T17:09:03.117Z,62.10
2017-12-06T17:11:29.458Z,62.68
2017-12-06T17:13:55.698Z,62.83
2017-12-06T17:16:22.179Z,62.91
2017-12-06T17:18:48.544Z,63.22
2017-12-06T17:21:14.770Z,62.38
2017-12-06T17:23:40.986Z,62.39
2017-12-06T17:26:07.194Z,61.95
2017-12-06T17:28:33.516Z,61.89
2017-12-06T17:30:59.721Z,61.96
2017-12-06T17:33:25.908Z,61.40
2017-12-06T17:35:52.076Z,61.16
2017-12-06T17:38:18.266Z,61.57
2017-12-06T17:40:44.593Z,61.07
2017-12-06T17:43:10.848Z,61.40
2017-12-06T17:45:37.280Z,61.31
2017-12-06T17:48:03.493Z,61.36
2017-12-06T17:50:29.733Z,60.58
2017-12-06T17:52:55.951Z,60.45
2017-12-06T17:55:22.181Z,60.33
2017-12-06T17:57:48.618Z,60.18
2017-12-06T18:00:14.828Z,60.24
2017-12-06T18:02:41.023Z,60.84
2017-12-06T18:05:07.255Z,60.55
2017-12-06T18:07:33.470Z,59.67
2017-12-06T18:09:59.771Z,60.10
2017-12-06T18:12:25.960Z,59.24
2017-12-06T18:14:52.235Z,59.79
2017-12-06T18:17:18.433Z,59.81
2017-12-06T18:19:44.688Z,59.96
2017-12-06T18:22:11.307Z,59.44
2017-12-06T18:24:37.553Z,60.38
2017-12-06T18:27:03.756Z,60.28
2017-12-06T18:29:30.162Z,60.22
2017-12-06T18:31:56.349Z,60.75
2017-12-06T18:34:22.545Z,60.59
2017-12-06T18:36:48.786Z,60.72
2017-12-06T18:39:15.130Z,60.57
2017-12-06T18:41:41.562Z,60.74
2017-12-06T18:44:07.812Z,60.94
2017-12-06T18:46:33.998Z,61.40
2017-12-06T18:49:00.201Z,62.00
2017-12-06T18:51:26.498Z,61.54
2017-12-06T18:53:52.677Z,61.70
2017-12-06T18:56:18.851Z,61.60
2017-12-06T18:58:45.040Z,61.77
2017-12-06T19:01:11.219Z,61.68
2017-12-06T19:03:37.396Z,61.76
2017-12-06T19:06:03.832Z,62.15
2017-12-06T19:08:29.996Z,62.17
2017-12-06T19:10:56.182Z,62.22
2017-12-06T19:13:22.397Z,62.22
2017-12-06T19:15:48.555Z,62.15
2017-12-06T19:18:14.797Z,62.08
2017-12-06T19:20:41.411Z,62.04
2017-12-06T19:23:07.591Z,62.07
2017-12-06T19:25:33.869Z,61.83
2017-12-06T19:28:00.076Z,62.04
2017-12-06T19:30:26.545Z,62.58
2017-12-06T19:32:52.718Z,62.01
2017-12-06T19:35:18.924Z,61.99
2017-12-06T19:37:45.085Z,61.93
2017-12-06T19:40:11.265Z,61.70
2017-12-06T19:42:37.486Z,61.55
2017-12-06T19:45:03.719Z,61.93
2017-12-06T19:47:29.937Z,61.75
2017-12-06T19:49:56.154Z,61.59
2017-12-06T19:52:22.342Z,61.73
2017-12-06T19:54:48.543Z,61.76
2017-12-06T19:57:14.736Z,62.39
2017-12-06T19:59:40.922Z,62.24
2017-12-06T20:02:07.099Z,62.70
2017-12-06T20:04:33.532Z,62.48
2017-12-06T20:06:59.721Z,62.52
2017-12-06T20:09:25.913Z,62.51
2017-12-06T20:11:52.225Z,62.63
2017-12-06T20:14:18.411Z,61.93
2017-12-06T20:16:44.687Z,62.16
2017-12-06T20:19:11.344Z,62.75
2017-12-06T20:21:37.538Z,62.42
2017-12-06T20:24:03.715Z,62.42
2017-12-06T20:26:30.008Z,62.59
2017-12-06T20:28:56.193Z,62.71
2017-12-06T20:31:22.455Z,63.01
2017-12-06T20:33:48.896Z,63.16
2017-12-06T20:36:15.095Z,63.34
2017-12-06T20:38:41.297Z,63.47
2017-12-06T20:41:07.509Z,63.04
2017-12-06T20:43:33.888Z,62.56
2017-12-06T20:46:00.452Z,62.53
2017-12-06T20:48:26.674Z,62.36
2017-12-06T20:50:52.907Z,62.32
2017-12-06T20:53:19.120Z,62.51
2017-12-06T20:55:45.641Z,62.52
2017-12-06T20:58:11.988Z,63.43
2017-12-06T21:00:38.426Z,63.03
2017-12-06T21:03:04.864Z,62.73
2017-12-06T21:05:31.045Z,62.09
2017-12-06T21:07:57.306Z,62.33
2017-12-06T21:10:23.612Z,62.42
2017-12-06T21:12:50.193Z,62.87
2017-12-06T21:15:16.549Z,63.52
2017-12-06T21:17:42.847Z,63.44
2017-12-06T21:20:09.085Z,64.04
2017-12-06T21:22:35.285Z,64.06
2017-12-06T21:25:01.544Z,64.33
2017-12-06T21:27:27.735Z,64.97
2017-12-06T21:29:54.205Z,65.00
2017-12-06T21:32:20.435Z,65.29
2017-12-06T21:34:46.623Z,65.49
2017-12-06T21:37:12.802Z,65.85
2017-12-06T21:39:39.008Z,66.26
2017-12-06T21:42:05.349Z,65.96
2017-12-06T21:44:31.578Z,66.15
2017-12-06T21:46:58.185Z,66.47
2017-12-06T21:49:24.438Z,67.15
2017-12-06T21:51:50.672Z,67.24
2017-12-06T21:54:16.933Z,67.37
2017-12-06T21:56:43.259Z,67.39
2017-12-06T21:59:09.563Z,67.33
2017-12-06T22:01:35.793Z,67.70
2017-12-06T22:04:01.988Z,68.02
2017-12-06T22:06:28.233Z,68.31
2017-12-06T22:08:54.667Z,68.58
2017-12-06T22:11:20.908Z,68.57
2017-12-06T22:13:47.128Z,68.86
2017-12-06T22:16:13.349Z,69.06
2017-12-06T22:18:39.547Z,69.13
2017-12-06T22:21:05.811Z,69.27
2017-12-06T22:23:32.258Z,69.13
2017-12-06T22:25:58.481Z,69.41
2017-12-06T22:28:24.677Z,69.57
2017-12-06T22:30:51.129Z,70.09
2017-12-06T22:33:17.363Z,70.23
2017-12-06T22:35:43.553Z,70.37
2017-12-06T22:38:09.782Z,70.51
2017-12-06T22:40:36.057Z,70.52
2017-12-06T22:43:02.453Z,70.73
2017-12-06T22:45:28.673Z,71.30
2017-12-06T22:47:54.957Z,71.69
2017-12-06T22:50:21.160Z,71.71
2017-12-06T22:52:47.384Z,72.19
2017-12-06T22:55:13.624Z,72.40
2017-12-06T22:57:39.805Z,72.62
2017-12-06T23:00:06.244Z,72.55
2017-12-06T23:02:32.475Z,73.29
2017-12-06T23:04:58.745Z,73.33
2017-12-06T23:07:25.392Z,73.71
2017-12-06T23:09:52.011Z,72.91
2017-12-06T23:12:18.264Z,73.38
2017-12-06T23:14:44.744Z,73.78
2017-12-06T23:17:11.117Z,74.84
2017-12-06T23:19:37.355Z,75.22
2017-12-06T23:22:03.997Z,75.05
2017-12-06T23:24:30.260Z,75.50
2017-12-06T23:26:56.641Z,76.30
2017-12-06T23:29:23.045Z,76.58
2017-12-06T23:31:49.387Z,77.45
2017-12-06T23:34:15.742Z,77.69
2017-12-06T23:36:41.960Z,77.55
2017-12-06T23:39:08.134Z,77.90
2017-12-06T23:41:34.317Z,78.61
2017-12-06T23:44:00.828Z,79.08
2017-12-06T23:46:27.103Z,79.01
2017-12-06T23:48:53.604Z,78.85
2017-12-06T23:51:19.819Z,78.99
2017-12-06T23:53:46.151Z,79.82
2017-12-06T23:56:12.326Z,80.44
2017-12-06T23:58:38.642Z,80.45
